South Milwaukee, Wisconsin
Current Conditions -  °F | °C
As of 1:34 PM on Friday 24 Oct 2014 (Local Time) from KMKE Reporting Station
Broken Clouds Broken Clouds  
Wind Chill: 57°   Ceiling: 25000
Heat Index: 57°   Visibility: 10mi
Dew Point: 50°   Wind: 5mph
Humidity: 77%   Direction: 260°W
Pressure: 30"   Gusts: NA
Location:  42.91°N, 87.87°W
Report Text: KMKE 241834Z 26004KT 10SM SCT010 BKN250 14/10 A3000 RMK AO2 T01390100
Loading
Personal Weather Stations






























Interactive Weather Map
Tropical Storm Tracking
New forecast layout! Learn more

10-Day Weather Forecast

Advertisements
Track Severe Weather on mobile